Sophie — WDH2326 — position and weather

sailwx.info

Track history (hours):
 
Tides and Currents Weather Stations Pressure Air Temp Water Temp Dewpoint Dewpoint Depression Visibility Wind Speed Wind Dir Waves Ship Positions

Sophie

Owner: Huey, George H, Chino Valley, AZ. More information available from US FCC via Universal Licensing System and Coast Guard Vessel Documentation Center.

Last reported at 2018-May-22 16:18 UTC. Time now 2018-May-26 04:10 UTC.
Position N 40°60' W 071°51'.

Length 14 m.

Type: Sailing vessel. MMSI: 367596470.

Date/timePositionNaut miles runAvg speedWind from/ knotsBaromVisibWave heightAir tempDewpointWater temp
2018-May-22 16:18N 40°60' W 071°51'2 5.8
2018-May-22 15:55N 40°58' W 071°52'13 5.6
2018-May-22 13:40N 40°48' W 072°03'1 5.5
2018-May-22 13:29N 40°47' W 072°04'4 5.6
2018-May-22 12:49N 40°44' W 072°07'2 6.1
2018-May-22 12:30N 40°43' W 072°09'3 6.2
2018-May-22 11:58N 40°40' W 072°11'3 6.1
2018-May-22 11:29N 40°38' W 072°14'5 5.8
2018-May-22 10:33N 40°34' W 072°19'1 6.3
2018-May-22 10:28N 40°34' W 072°19'3 6.2
2018-May-22 10:00N 40°31' W 072°22'  
2018-May-13 18:54N 36°58' W 076°06'2 5.6
2018-May-13 18:30N 36°58' W 076°03'4 4.8
2018-May-13 17:38N 36°56' W 075°59'1 5.3
2018-May-13 17:30N 36°55' W 075°58'2 4.8
2018-May-13 17:01N 36°53' W 075°57'131 5.5
2018-May-12 17:23N 34°42' W 076°04'7 6.8
2018-May-12 16:21N 34°38' W 076°11'  
Track history (hours):
 
Tides and Currents Weather Stations Pressure Air Temp Water Temp Dewpoint Dewpoint Depression Visibility Wind Speed Wind Dir Waves Ship Positions

Sophie

Owner: Huey, George H, Chino Valley, AZ. More information available from US FCC via Universal Licensing System and Coast Guard Vessel Documentation Center.

Last reported at 2018-May-22 16:18 UTC. Time now 2018-May-26 04:10 UTC.
Position N 40°60' W 071°51'.

Length 14 m.

Type: Sailing vessel. MMSI: 367596470.

Date/timePositionNaut miles runAvg speedWind from/ knotsBaromVisibWave heightAir tempDewpointWater temp
2018-May-22 16:18N 40°60' W 071°51'2 5.8
2018-May-22 15:55N 40°58' W 071°52'13 5.6
2018-May-22 13:40N 40°48' W 072°03'1 5.5
2018-May-22 13:29N 40°47' W 072°04'4 5.6
2018-May-22 12:49N 40°44' W 072°07'2 6.1
2018-May-22 12:30N 40°43' W 072°09'3 6.2
2018-May-22 11:58N 40°40' W 072°11'3 6.1
2018-May-22 11:29N 40°38' W 072°14'5 5.8
2018-May-22 10:33N 40°34' W 072°19'1 6.3
2018-May-22 10:28N 40°34' W 072°19'3 6.2
2018-May-22 10:00N 40°31' W 072°22'  
2018-May-13 18:54N 36°58' W 076°06'2 5.6
2018-May-13 18:30N 36°58' W 076°03'4 4.8
2018-May-13 17:38N 36°56' W 075°59'1 5.3
2018-May-13 17:30N 36°55' W 075°58'2 4.8
2018-May-13 17:01N 36°53' W 075°57'131 5.5
2018-May-12 17:23N 34°42' W 076°04'7 6.8
2018-May-12 16:21N 34°38' W 076°11'  

Dump ship's entire track history